createdAt,value
2022-12-31T05:03:03.089Z,75.50
2022-12-31T05:07:05.665Z,75.57
2022-12-31T05:11:08.297Z,76.04
2022-12-31T05:15:12.440Z,76.30
2022-12-31T05:19:16.429Z,76.73
2022-12-31T05:23:19.389Z,76.66
2022-12-31T05:27:21.967Z,76.81
2022-12-31T05:31:24.503Z,76.61
2022-12-31T05:35:28.447Z,76.28
2022-12-31T05:39:30.948Z,75.57
2022-12-31T05:43:33.640Z,75.48
2022-12-31T05:47:36.176Z,75.44
2022-12-31T05:51:40.637Z,75.29
2022-12-31T05:55:43.172Z,75.37
2022-12-31T05:59:45.714Z,74.75
2022-12-31T06:03:48.418Z,74.44
2022-12-31T06:07:52.275Z,74.99
2022-12-31T06:11:54.764Z,75.12
2022-12-31T06:15:57.315Z,75.96
2022-12-31T06:20:01.265Z,76.84
2022-12-31T06:24:05.924Z,77.00
2022-12-31T06:28:08.438Z,76.64
2022-12-31T06:32:11.189Z,76.28
2022-12-31T06:36:16.104Z,76.13
2022-12-31T06:40:20.961Z,75.99
2022-12-31T06:44:23.665Z,75.66
2022-12-31T06:48:26.196Z,75.22
2022-12-31T06:52:28.697Z,75.56
2022-12-31T06:56:35.072Z,75.33
2022-12-31T07:00:38.114Z,74.69
2022-12-31T07:05:02.279Z,74.64
2022-12-31T07:09:09.843Z,74.74
2022-12-31T07:13:30.077Z,74.32
2022-12-31T07:17:41.651Z,73.96
2022-12-31T07:21:44.777Z,73.99
2022-12-31T07:25:59.829Z,74.11
2022-12-31T07:30:07.511Z,74.35
2022-12-31T07:34:20.156Z,74.10
2022-12-31T07:38:31.044Z,74.01
2022-12-31T07:42:44.141Z,73.79
2022-12-31T07:46:56.518Z,73.82
2022-12-31T07:50:59.636Z,73.36
2022-12-31T07:55:02.169Z,73.52
2022-12-31T07:59:17.393Z,74.14
2022-12-31T08:03:42.415Z,76.67
2022-12-31T08:07:53.841Z,79.01
2022-12-31T08:11:58.999Z,79.57
2022-12-31T08:16:03.351Z,79.36
2022-12-31T08:20:08.595Z,79.51
2022-12-31T08:24:22.268Z,78.26
2022-12-31T08:28:34.479Z,77.09
2022-12-31T08:32:44.249Z,75.80
2022-12-31T08:36:53.747Z,75.29
2022-12-31T08:41:02.264Z,74.68
2022-12-31T08:45:15.059Z,74.45
2022-12-31T08:49:18.090Z,74.10
2022-12-31T08:53:22.708Z,74.02
2022-12-31T08:57:34.348Z,73.31
2022-12-31T09:01:48.845Z,73.01
2022-12-31T09:05:58.756Z,72.70
2022-12-31T09:10:15.369Z,72.63
2022-12-31T09:14:31.621Z,71.84
2022-12-31T09:18:39.271Z,71.40
2022-12-31T09:22:42.048Z,71.57
2022-12-31T09:26:58.185Z,71.72
2022-12-31T09:31:06.904Z,72.17
2022-12-31T09:35:19.139Z,71.63
2022-12-31T09:39:32.463Z,70.90
2022-12-31T09:44:36.016Z,71.10
2022-12-31T09:49:01.499Z,70.86
2022-12-31T09:53:22.990Z,70.93
2022-12-31T09:57:39.119Z,70.78
2022-12-31T10:01:51.470Z,70.68
2022-12-31T10:06:07.428Z,70.42
2022-12-31T10:10:17.326Z,69.72
2022-12-31T10:14:35.569Z,69.42
2022-12-31T10:19:01.576Z,69.67
2022-12-31T10:23:27.359Z,69.26
2022-12-31T10:27:46.670Z,69.66
2022-12-31T10:31:57.877Z,69.58
2022-12-31T10:36:09.199Z,68.85
2022-12-31T10:40:25.826Z,68.63
2022-12-31T10:45:21.715Z,68.63
2022-12-31T10:49:56.776Z,68.45
2022-12-31T10:54:42.996Z,68.50
2022-12-31T10:59:18.059Z,69.69
2022-12-31T11:03:55.005Z,69.98
2022-12-31T11:08:10.417Z,70.29
2022-12-31T11:12:32.893Z,69.61
2022-12-31T11:16:51.818Z,69.27
2022-12-31T11:21:09.152Z,68.81
2022-12-31T11:25:28.487Z,68.64
2022-12-31T11:29:44.354Z,68.33
2022-12-31T11:34:04.456Z,68.42
2022-12-31T11:38:22.114Z,68.63
2022-12-31T11:42:35.436Z,68.29
2022-12-31T11:46:50.339Z,67.98
2022-12-31T11:51:07.436Z,68.36
2022-12-31T11:55:24.450Z,68.09
2022-12-31T11:59:27.125Z,68.16
2022-12-31T12:03:30.321Z,68.00
2022-12-31T12:07:35.283Z,67.62
2022-12-31T12:11:39.914Z,67.68
2022-12-31T12:15:46.085Z,67.53
2022-12-31T12:19:55.222Z,67.74
2022-12-31T12:24:01.741Z,67.53
2022-12-31T12:28:18.321Z,67.62
2022-12-31T12:32:23.186Z,67.17
2022-12-31T12:36:25.690Z,66.89
2022-12-31T12:40:33.720Z,66.06
2022-12-31T12:44:37.533Z,65.69
2022-12-31T12:48:42.810Z,64.62
2022-12-31T12:53:05.741Z,63.83
2022-12-31T12:57:37.920Z,63.73
2022-12-31T13:01:47.397Z,63.56
2022-12-31T13:06:05.605Z,63.70
2022-12-31T13:10:23.270Z,63.46
2022-12-31T13:14:37.335Z,63.19
2022-12-31T13:18:50.867Z,63.30
2022-12-31T13:22:59.426Z,62.96
2022-12-31T13:28:44.649Z,63.30
2022-12-31T13:32:52.738Z,63.39
2022-12-31T13:36:59.927Z,63.46
2022-12-31T13:41:09.908Z,63.40
2022-12-31T13:45:21.719Z,63.58
2022-12-31T13:49:27.902Z,63.94
2022-12-31T13:53:35.831Z,63.86
2022-12-31T13:57:43.692Z,63.62
2022-12-31T14:01:53.295Z,63.59
2022-12-31T14:05:59.804Z,63.07
2022-12-31T14:10:02.318Z,63.52
2022-12-31T14:14:12.949Z,63.98
2022-12-31T14:18:24.442Z,63.93
2022-12-31T14:22:35.706Z,64.34
2022-12-31T14:26:41.801Z,63.64
2022-12-31T14:30:48.085Z,63.81
2022-12-31T14:35:00.575Z,63.88
2022-12-31T14:39:18.166Z,64.07
2022-12-31T14:43:29.293Z,64.42
2022-12-31T14:47:45.476Z,64.46
2022-12-31T14:51:49.358Z,64.50
2022-12-31T14:55:59.469Z,64.30
2022-12-31T15:00:22.433Z,64.41
2022-12-31T15:04:32.769Z,64.88
2022-12-31T15:08:52.884Z,64.89
2022-12-31T15:13:05.936Z,64.70
2022-12-31T15:17:21.572Z,65.20
2022-12-31T15:21:37.557Z,65.10
2022-12-31T15:25:48.987Z,65.40
2022-12-31T15:29:51.584Z,64.99
2022-12-31T15:33:57.697Z,65.36
2022-12-31T15:38:01.945Z,65.11
2022-12-31T15:42:37.917Z,65.27
2022-12-31T15:46:43.474Z,65.48
2022-12-31T15:50:48.400Z,65.29
2022-12-31T15:54:52.517Z,65.21
2022-12-31T15:59:00.468Z,65.65
2022-12-31T16:03:03.406Z,66.08
2022-12-31T16:07:06.495Z,66.25
2022-12-31T16:11:10.813Z,66.31
2022-12-31T16:15:23.397Z,66.63
2022-12-31T16:19:31.497Z,67.04
2022-12-31T16:23:38.784Z,66.80
2022-12-31T16:27:44.594Z,66.89
2022-12-31T16:31:49.974Z,67.10
2022-12-31T16:35:56.324Z,67.14
2022-12-31T16:40:18.293Z,67.19
2022-12-31T16:44:28.206Z,67.67
2022-12-31T16:48:32.049Z,67.72
2022-12-31T16:52:39.581Z,68.02
2022-12-31T16:56:43.583Z,68.62
2022-12-31T17:00:47.696Z,68.39
2022-12-31T17:04:55.989Z,68.15
2022-12-31T17:09:13.847Z,68.47
2022-12-31T17:13:27.975Z,68.63
2022-12-31T17:17:35.866Z,68.09
2022-12-31T17:21:49.574Z,68.14
2022-12-31T17:25:59.848Z,68.17
2022-12-31T17:30:21.254Z,68.40
2022-12-31T17:34:30.176Z,68.69
2022-12-31T17:38:37.039Z,68.99
2022-12-31T17:42:40.663Z,68.89
2022-12-31T17:46:43.345Z,69.36
2022-12-31T17:50:48.715Z,69.67
2022-12-31T17:54:52.667Z,69.60
2022-12-31T17:58:55.573Z,69.50
2022-12-31T18:02:58.336Z,69.39
2022-12-31T18:07:00.981Z,69.34
2022-12-31T18:11:05.162Z,68.73
2022-12-31T18:15:09.307Z,68.19
2022-12-31T18:19:37.680Z,67.76
2022-12-31T18:23:39.760Z,67.68
2022-12-31T18:27:43.633Z,67.44
2022-12-31T18:31:48.829Z,66.31
2022-12-31T18:36:08.928Z,65.80
2022-12-31T18:40:13.716Z,65.93
2022-12-31T18:44:18.650Z,66.24
2022-12-31T18:48:21.277Z,66.15
2022-12-31T18:52:25.035Z,66.17
2022-12-31T18:56:27.932Z,65.39
2022-12-31T19:00:32.093Z,65.04
2022-12-31T19:04:35.115Z,64.96
2022-12-31T19:08:37.734Z,65.00
2022-12-31T19:12:40.333Z,65.15
2022-12-31T19:16:44.223Z,65.27
2022-12-31T19:20:46.897Z,64.66
2022-12-31T19:24:49.419Z,64.40
2022-12-31T19:28:52.119Z,64.09
2022-12-31T19:32:56.252Z,63.94
2022-12-31T19:36:58.786Z,64.01
2022-12-31T19:41:02.758Z,64.09
2022-12-31T19:45:06.316Z,63.46
2022-12-31T19:49:12.021Z,63.66
2022-12-31T19:53:16.965Z,63.34
2022-12-31T19:57:19.471Z,62.58
2022-12-31T20:01:24.385Z,63.06
2022-12-31T20:05:28.859Z,63.48
2022-12-31T20:09:31.352Z,63.38
2022-12-31T20:13:35.243Z,63.49
2022-12-31T20:17:38.379Z,63.21
2022-12-31T20:21:44.451Z,63.05
2022-12-31T20:25:57.543Z,62.55
2022-12-31T20:30:00.111Z,62.18
2022-12-31T20:34:02.637Z,63.19
2022-12-31T20:38:06.484Z,62.79
2022-12-31T20:42:09.124Z,62.08
2022-12-31T20:46:15.742Z,61.77
2022-12-31T20:50:18.839Z,61.91
2022-12-31T20:54:22.839Z,61.87
2022-12-31T20:58:25.370Z,61.64
2022-12-31T21:02:41.061Z,61.32
2022-12-31T21:06:44.378Z,61.71
2022-12-31T21:10:50.545Z,61.62
2022-12-31T21:14:53.155Z,61.54
2022-12-31T21:18:56.093Z,61.56
2022-12-31T21:22:58.622Z,60.67
2022-12-31T21:27:02.522Z,60.29
2022-12-31T21:31:07.420Z,60.70
2022-12-31T21:39:32.857Z,61.34
2022-12-31T21:43:36.703Z,61.95
2022-12-31T21:47:56.934Z,60.72
2022-12-31T21:52:17.028Z,60.31
2022-12-31T21:56:21.152Z,60.08
